Time;durP1;ratioP1;P1;durP2;ratioP2;P2;SDS_P1;SDS_P2;PMS_P1;PMS_P2;Temp;Humidity;BMP_temperature;BMP_pressure;BME280_temperature;BME280_humidity;BME280_pressure;Samples;Min_cycle;Max_cycle;Signal;HPM_P1;HPM_P2
2021/12/12 00:00:54;;;;;;;25.13;9.98;;;;;;;-2.96;93.08;94592.78;4818554;29;20073;-69
2021/12/12 00:03:39;;;;;;;36.33;13.05;;;;;;;-2.93;93.08;94597.53;4803074;29;20054;-69
2021/12/12 00:06:14;;;;;;;22.13;8.60;;;;;;;-2.76;93.02;94599.44;4821460;29;20045;-68
2021/12/12 00:08:45;;;;;;;24.95;9.32;;;;;;;-2.64;92.77;94597.72;4840445;29;20054;-69
2021/12/12 00:11:15;;;;;;;32.22;11.13;;;;;;;-2.65;92.45;94600.75;4839387;29;20054;-69
2021/12/12 00:13:50;;;;;;;25.60;9.98;;;;;;;-2.66;92.53;94605.31;4839887;29;20050;-69
2021/12/12 00:16:17;;;;;;;32.25;11.63;;;;;;;-3.00;93.28;94603.34;4839186;29;20054;-69
2021/12/12 00:18:44;;;;;;;28.83;11.27;;;;;;;-2.98;93.43;94603.03;4823658;29;20060;-70
2021/12/12 00:21:14;;;;;;;22.10;9.20;;;;;;;-2.96;93.33;94596.25;4838173;29;20381;-69
2021/12/12 00:23:41;;;;;;;26.05;12.13;;;;;;;-2.98;93.41;94603.81;4839909;29;20053;-69
2021/12/12 00:26:09;;;;;;;40.50;18.27;;;;;;;-2.84;93.64;94601.84;4839118;29;20460;-69
2021/12/12 00:28:36;;;;;;;29.20;12.63;;;;;;;-2.74;92.78;94608.78;4853562;29;20060;-69
2021/12/12 00:31:09;;;;;;;18.43;8.87;;;;;;;-2.62;92.67;94618.91;4838791;29;20060;-69
2021/12/12 00:33:43;;;;;;;17.17;8.95;;;;;;;-2.61;92.41;94621.28;4852323;29;20049;-69
2021/12/12 00:36:14;;;;;;;24.13;10.73;;;;;;;-2.70;91.92;94617.78;4838029;29;20058;-69
2021/12/12 00:38:41;;;;;;;23.85;11.50;;;;;;;-2.56;91.85;94620.34;4839696;29;20060;-69
2021/12/12 00:41:11;;;;;;;19.35;8.88;;;;;;;-2.42;91.97;94622.88;4838424;29;20049;-69
2021/12/12 00:43:44;;;;;;;21.20;10.43;;;;;;;-2.31;91.57;94618.00;4839412;29;20081;-70
2021/12/12 00:46:12;;;;;;;20.10;8.52;;;;;;;-2.29;91.47;94619.25;4838704;29;20484;-69
2021/12/12 00:48:43;;;;;;;20.65;9.27;;;;;;;-2.22;90.93;94633.00;4839053;29;20061;-69
2021/12/12 00:51:15;;;;;;;25.40;9.00;;;;;;;-2.24;90.64;94643.28;4839060;29;20111;-69
2021/12/12 00:53:43;;;;;;;23.15;8.82;;;;;;;-2.41;90.79;94638.69;4839405;29;20053;-69
2021/12/12 00:56:12;;;;;;;23.97;8.27;;;;;;;-2.68;91.61;94636.28;4831275;29;20043;-70
2021/12/12 00:58:39;;;;;;;17.73;7.25;;;;;;;-2.64;92.25;94640.72;4818622;29;20048;-69
2021/12/12 01:01:12;;;;;;;15.32;7.35;;;;;;;-2.64;92.52;94648.00;4820461;29;20069;-69
2021/12/12 01:03:52;;;;;;;16.70;7.03;;;;;;;-2.74;92.35;94645.59;4834396;29;20055;-69
2021/12/12 01:06:21;;;;;;;17.25;7.30;;;;;;;-2.88;93.39;94651.09;4829498;29;20057;-69
2021/12/12 01:08:49;;;;;;;19.63;8.30;;;;;;;-2.68;93.08;94658.56;4839471;29;20439;-69
2021/12/12 01:11:30;;;;;;;20.63;8.57;;;;;;;-2.63;92.46;94661.13;4852720;29;20046;-69
2021/12/12 01:13:58;;;;;;;22.45;9.27;;;;;;;-2.69;92.67;94656.22;4838080;29;20058;-69
2021/12/12 01:16:34;;;;;;;22.20;9.02;;;;;;;-2.68;93.00;94653.19;4837245;29;20065;-69
2021/12/12 01:19:09;;;;;;;17.27;7.38;;;;;;;-2.57;92.77;94653.69;4837933;29;20073;-69
2021/12/12 01:21:44;;;;;;;19.30;7.37;;;;;;;-2.55;92.59;94659.56;4837962;29;20751;-69
2021/12/12 01:24:19;;;;;;;17.58;7.40;;;;;;;-2.36;92.34;94655.78;4838502;29;20129;-69
2021/12/12 01:26:47;;;;;;;18.13;7.10;;;;;;;-2.26;91.76;94656.25;4839101;29;20077;-69
2021/12/12 01:29:14;;;;;;;15.50;7.10;;;;;;;-2.38;91.53;94658.78;4838519;29;20057;-69
2021/12/12 01:31:47;;;;;;;21.67;8.02;;;;;;;-2.44;91.50;94668.88;4838937;29;20049;-69
2021/12/12 01:34:22;;;;;;;26.30;9.57;;;;;;;-2.68;92.18;94657.78;4838623;29;20132;-69
2021/12/12 01:39:40;;;;;;;16.45;6.97;;;;;;;-2.67;92.44;94664.75;4838510;29;20052;-69
2021/12/12 01:42:11;;;;;;;17.27;6.57;;;;;;;-2.68;92.78;94668.53;4838219;29;20049;-69
2021/12/12 01:44:50;;;;;;;32.60;9.98;;;;;;;-2.62;92.66;94665.41;4838782;29;20048;-69
2021/12/12 01:47:34;;;;;;;29.90;8.83;;;;;;;-2.68;92.91;94663.16;4836951;29;20085;-69
2021/12/12 01:50:07;;;;;;;23.65;8.57;;;;;;;-2.65;93.14;94676.75;4838986;29;20052;-69
2021/12/12 01:52:35;;;;;;;29.05;9.98;;;;;;;-2.49;92.56;94687.84;4837975;29;20411;-69
2021/12/12 01:55:12;;;;;;;36.47;12.75;;;;;;;-2.45;92.19;94686.13;4839029;29;20076;-69
2021/12/12 01:57:40;;;;;;;25.70;9.77;;;;;;;-2.48;91.98;94681.38;4809856;29;20372;-69
2021/12/12 02:00:33;;;;;;;33.87;10.10;;;;;;;-2.59;91.98;94682.78;4819991;29;20085;-68
2021/12/12 02:03:02;;;;;;;19.75;7.03;;;;;;;-2.57;92.17;94683.25;4816661;29;20043;-69
2021/12/12 02:05:30;;;;;;;29.70;9.70;;;;;;;-2.56;92.53;94687.50;4824178;29;20060;-69
2021/12/12 02:08:01;;;;;;;21.23;7.90;;;;;;;-2.47;92.05;94688.34;4838871;29;20057;-69
2021/12/12 02:10:36;;;;;;;20.60;7.57;;;;;;;-2.35;91.94;94685.03;4853531;29;20502;-69
2021/12/12 02:13:07;;;;;;;24.27;8.17;;;;;;;-2.44;92.01;94692.28;4841998;29;20050;-69
2021/12/12 02:15:37;;;;;;;19.48;7.30;;;;;;;-2.51;92.08;94686.59;4840797;29;20050;-69
2021/12/12 02:18:12;;;;;;;15.95;6.50;;;;;;;-2.81;93.39;94684.47;4841870;29;20054;-69
2021/12/12 02:21:04;;;;;;;15.90;6.22;;;;;;;-2.86;94.16;94690.00;4840785;29;20505;-69
2021/12/12 02:23:46;;;;;;;25.85;10.05;;;;;;;-2.62;94.12;94694.13;4840954;29;20356;-69
2021/12/12 02:37:17;;;;;;;14.98;6.78;;;;;;;-2.34;91.51;94699.25;4841104;29;20056;-69
2021/12/12 02:39:44;;;;;;;16.50;6.33;;;;;;;-2.24;91.72;94693.56;4841191;29;20061;-69
2021/12/12 02:42:13;;;;;;;15.10;6.70;;;;;;;-2.18;91.45;94695.00;4840800;29;20526;-69
2021/12/12 02:44:43;;;;;;;15.13;6.20;;;;;;;-2.31;91.36;94691.38;4841183;29;20419;-69
2021/12/12 02:47:17;;;;;;;17.52;8.05;;;;;;;-2.43;91.07;94689.28;4841086;29;20050;-69
2021/12/12 02:52:27;;;;;;;15.70;6.60;;;;;;;-2.76;92.78;94694.25;4841055;29;20085;-69
2021/12/12 02:54:57;;;;;;;20.10;8.40;;;;;;;-2.72;93.08;94697.13;4840254;29;20124;-69
2021/12/12 02:57:24;;;;;;;21.85;8.65;;;;;;;-2.73;92.35;94696.34;4840278;29;20072;-70
2021/12/12 02:59:51;;;;;;;26.67;9.30;;;;;;;-2.72;92.25;94695.22;4840999;29;20052;-69
2021/12/12 03:02:27;;;;;;;17.13;7.50;;;;;;;-2.75;91.66;94698.53;4854553;29;20446;-69
2021/12/12 03:05:00;;;;;;;18.70;7.17;;;;;;;-2.71;91.38;94701.41;4840846;29;20046;-69
2021/12/12 03:07:27;;;;;;;18.33;7.10;;;;;;;-2.75;91.18;94697.75;4804036;29;20053;-69
2021/12/12 03:09:57;;;;;;;16.60;6.85;;;;;;;-2.79;91.33;94696.81;4818475;29;20064;-69
2021/12/12 03:12:31;;;;;;;15.38;6.70;;;;;;;-2.84;91.05;94690.47;4803684;29;20051;-70
2021/12/12 03:15:07;;;;;;;17.10;6.93;;;;;;;-2.84;91.29;94703.91;4804586;29;20158;-69
2021/12/12 03:17:36;;;;;;;15.60;6.70;;;;;;;-2.93;90.10;94702.28;4804033;29;20051;-69
2021/12/12 03:20:10;;;;;;;14.65;5.93;;;;;;;-3.04;90.69;94702.56;4811731;29;20054;-69
2021/12/12 03:22:37;;;;;;;15.02;6.55;;;;;;;-3.12;90.22;94700.63;4820246;29;21549;-69
2021/12/12 03:25:04;;;;;;;11.90;5.50;;;;;;;-3.21;89.50;94697.09;4822623;29;20055;-69
2021/12/12 03:27:31;;;;;;;20.63;7.68;;;;;;;-3.32;88.86;94693.91;4820972;29;21358;-69
2021/12/12 03:29:58;;;;;;;12.00;5.50;;;;;;;-3.37;89.50;94706.66;4836130;29;20050;-69
2021/12/12 03:32:25;;;;;;;14.13;5.63;;;;;;;-3.44;88.57;94712.44;4821643;29;20066;-70
2021/12/12 03:35:00;;;;;;;12.80;5.68;;;;;;;-3.52;88.78;94703.25;4822175;29;20053;-69
2021/12/12 03:37:30;;;;;;;12.05;5.75;;;;;;;-3.57;88.64;94702.59;4821792;29;20056;-69
2021/12/12 03:40:02;;;;;;;13.23;5.50;;;;;;;-3.65;88.78;94688.81;4822490;29;20046;-68
2021/12/12 03:42:30;;;;;;;11.80;4.87;;;;;;;-3.71;88.86;94692.72;4821436;29;20050;-69
2021/12/12 03:44:59;;;;;;;10.63;4.70;;;;;;;-3.74;88.83;94705.94;4822236;29;20050;-69
2021/12/12 03:47:35;;;;;;;18.38;6.65;;;;;;;-3.74;89.52;94706.75;4821363;29;20048;-70
2021/12/12 03:50:08;;;;;;;11.90;5.80;;;;;;;-3.83;89.15;94706.66;4826761;29;20054;-69
2021/12/12 03:52:35;;;;;;;17.30;7.22;;;;;;;-3.85;89.62;94702.72;4839353;29;20858;-69
2021/12/12 03:55:04;;;;;;;14.57;6.33;;;;;;;-3.84;90.19;94707.78;4840329;29;20058;-69
2021/12/12 03:57:31;;;;;;;28.63;10.45;;;;;;;-3.86;89.69;94712.66;4838999;29;20716;-69
2021/12/12 03:59:59;;;;;;;27.63;9.40;;;;;;;-3.90;89.64;94717.03;4840002;29;20049;-69
2021/12/12 04:02:27;;;;;;;21.95;8.68;;;;;;;-3.89;89.75;94715.16;4838424;29;20042;-69
2021/12/12 04:04:54;;;;;;;23.70;8.93;;;;;;;-3.92;89.54;94711.19;4839863;29;20113;-69
2021/12/12 04:07:26;;;;;;;60.53;22.13;;;;;;;-3.90;89.78;94722.41;4803129;29;20069;-69
2021/12/12 04:09:55;;;;;;;25.70;9.57;;;;;;;-3.83;90.87;94727.34;4803646;29;20057;-69
2021/12/12 04:12:23;;;;;;;34.10;11.32;;;;;;;-3.88;91.11;94727.47;4802869;29;20058;-69
2021/12/12 04:14:52;;;;;;;29.77;8.90;;;;;;;-3.91;90.42;94722.72;4803225;29;20059;-69
2021/12/12 04:17:23;;;;;;;16.83;6.95;;;;;;;-3.95;89.93;94729.78;4803039;29;20058;-69
2021/12/12 04:19:52;;;;;;;29.70;9.77;;;;;;;-3.96;90.50;94720.13;4801794;29;20127;-69
2021/12/12 04:22:20;;;;;;;16.40;6.18;;;;;;;-4.01;90.98;94721.06;4801553;29;20077;-69
2021/12/12 04:24:51;;;;;;;11.98;5.10;;;;;;;-4.05;91.42;94723.53;4803242;29;20046;-69
2021/12/12 04:27:19;;;;;;;11.15;5.57;;;;;;;-4.04;92.25;94721.66;4802638;29;20058;-69
2021/12/12 04:29:49;;;;;;;13.07;5.40;;;;;;;-3.95;92.46;94727.09;4817067;29;20051;-69
2021/12/12 04:32:22;;;;;;;12.60;5.50;;;;;;;-3.89;93.65;94726.66;4801548;29;20058;-70
2021/12/12 04:34:54;;;;;;;13.02;5.68;;;;;;;-3.78;93.32;94731.78;4803037;29;20055;-69
2021/12/12 04:37:22;;;;;;;13.73;5.43;;;;;;;-3.70;93.27;94728.38;4802898;29;20507;-69
2021/12/12 04:39:53;;;;;;;12.98;5.25;;;;;;;-3.62;93.20;94733.81;4803013;29;20588;-68
2021/12/12 04:42:40;;;;;;;13.18;5.75;;;;;;;-3.55;93.33;94733.38;4802596;29;20051;-69
2021/12/12 04:45:41;;;;;;;14.20;6.70;;;;;;;-3.50;93.10;94741.31;4802504;29;20047;-69
2021/12/12 04:51:26;;;;;;;22.90;10.68;;;;;;;-3.44;93.32;94742.78;4811358;29;20050;-69
2021/12/12 04:54:07;;;;;;;18.73;8.60;;;;;;;-3.48;93.77;94740.97;4842048;29;20049;-69
2021/12/12 04:56:45;;;;;;;24.67;10.35;;;;;;;-3.39;93.63;94743.75;4836781;29;20046;-69
2021/12/12 04:59:34;;;;;;;22.53;9.73;;;;;;;-3.21;93.82;94743.53;4838854;29;20045;-69
2021/12/12 05:02:16;;;;;;;18.50;8.38;;;;;;;-3.16;93.34;94736.44;4839435;29;20050;-69
2021/12/12 05:05:01;;;;;;;19.15;8.35;;;;;;;-3.16;93.22;94739.13;4817143;29;20754;-70
2021/12/12 05:07:47;;;;;;;18.65;8.65;;;;;;;-3.15;93.58;94746.88;4816518;29;20038;-69
2021/12/12 05:10:31;;;;;;;15.25;6.60;;;;;;;-3.03;93.32;94740.94;4820826;29;20061;-70
2021/12/12 05:13:13;;;;;;;14.17;5.80;;;;;;;-2.92;92.92;94752.19;4820899;29;20065;-70
2021/12/12 05:15:43;;;;;;;14.57;6.30;;;;;;;-2.84;93.39;94738.81;4819917;29;20678;-69
2021/12/12 05:18:15;;;;;;;14.73;6.90;;;;;;;-2.88;92.91;94737.03;4820057;29;20054;-69
2021/12/12 05:20:47;;;;;;;14.48;6.45;;;;;;;-2.82;93.14;94741.16;4834022;29;20438;-69
2021/12/12 05:23:18;;;;;;;14.30;5.68;;;;;;;-2.79;92.93;94739.78;4819381;29;20073;-69
2021/12/12 05:26:03;;;;;;;12.07;6.03;;;;;;;-2.89;92.26;94743.53;4819603;29;20046;-69
2021/12/12 05:28:33;;;;;;;12.35;5.65;;;;;;;-2.87;92.36;94752.84;4834541;29;20419;-69
2021/12/12 05:31:04;;;;;;;13.88;5.85;;;;;;;-2.89;92.14;94757.75;4819772;29;20050;-69
2021/12/12 05:33:32;;;;;;;12.25;5.20;;;;;;;-2.94;91.58;94752.50;4819442;29;21838;-72
2021/12/12 05:35:59;;;;;;;13.82;5.85;;;;;;;-2.94;91.99;94751.72;4824620;29;20046;-70
2021/12/12 05:38:28;;;;;;;13.37;5.67;;;;;;;-2.94;91.50;94755.19;4823691;29;20119;-70
2021/12/12 05:40:55;;;;;;;12.63;5.43;;;;;;;-2.90;91.68;94763.41;4822458;29;20066;-70
2021/12/12 05:43:22;;;;;;;12.55;5.55;;;;;;;-2.95;91.06;94758.19;4820926;29;20050;-69
2021/12/12 05:45:52;;;;;;;14.43;5.45;;;;;;;-3.02;91.05;94755.94;4836394;29;20072;-69
2021/12/12 05:48:21;;;;;;;13.35;5.50;;;;;;;-3.04;90.82;94758.94;4823392;29;20466;-69
2021/12/12 05:50:50;;;;;;;11.73;4.93;;;;;;;-3.05;90.68;94762.72;4835614;29;20049;-69
2021/12/12 05:53:17;;;;;;;13.57;5.60;;;;;;;-3.15;90.44;94770.25;4841812;29;20114;-69
2021/12/12 05:55:45;;;;;;;12.30;5.78;;;;;;;-3.31;90.09;94776.00;4841617;29;21155;-70
2021/12/12 05:58:19;;;;;;;11.30;5.60;;;;;;;-3.35;90.09;94775.03;4841353;29;20060;-69
2021/12/12 06:01:09;;;;;;;9.85;5.15;;;;;;;-3.41;90.20;94778.94;4841941;29;20068;-69
2021/12/12 06:03:40;;;;;;;10.00;4.67;;;;;;;-3.54;90.10;94779.78;4840723;29;20871;-70
2021/12/12 06:06:14;;;;;;;7.55;3.70;;;;;;;-3.65;90.75;94771.19;4841477;29;20088;-69
2021/12/12 06:08:43;;;;;;;9.05;3.83;;;;;;;-3.76;90.92;94785.91;4841936;29;20411;-69
2021/12/12 06:11:13;;;;;;;12.68;4.95;;;;;;;-3.75;91.10;94790.19;4841243;29;20109;-69
2021/12/12 06:13:42;;;;;;;42.38;18.58;;;;;;;-3.74;91.01;94795.25;4841482;29;20045;-69
2021/12/12 06:16:18;;;;;;;14.90;5.90;;;;;;;-3.94;91.28;94785.78;4855606;29;20052;-69
2021/12/12 06:18:53;;;;;;;15.10;6.72;;;;;;;-3.96;91.33;94793.34;4841638;29;20046;-69
2021/12/12 06:21:20;;;;;;;12.82;5.53;;;;;;;-3.99;90.81;94785.09;4841384;29;20057;-69
2021/12/12 06:23:47;;;;;;;11.63;5.13;;;;;;;-4.02;90.81;94787.28;4841188;29;20057;-69
2021/12/12 06:26:17;;;;;;;13.00;5.68;;;;;;;-4.12;91.43;94792.88;4841102;29;20050;-69
2021/12/12 06:28:44;;;;;;;16.57;6.97;;;;;;;-4.20;92.81;94793.59;4841434;29;20058;-69
2021/12/12 06:31:12;;;;;;;14.90;6.30;;;;;;;-4.21;92.42;94789.31;4841080;29;20137;-70
2021/12/12 06:33:39;;;;;;;13.73;5.80;;;;;;;-4.19;92.24;94789.78;4841147;29;20057;-70
2021/12/12 06:36:09;;;;;;;15.68;6.45;;;;;;;-4.21;91.85;94784.72;4841000;29;20065;-67
2021/12/12 06:38:39;;;;;;;15.00;6.60;;;;;;;-4.21;91.60;94791.97;4841388;29;20442;-71
2021/12/12 06:41:09;;;;;;;16.73;6.60;;;;;;;-4.23;92.70;94788.81;4840795;29;20518;-69
2021/12/12 06:43:35;;;;;;;12.95;6.07;;;;;;;-4.29;91.76;94795.38;4841223;29;20054;-69
2021/12/12 06:46:05;;;;;;;13.07;5.95;;;;;;;-4.30;91.42;94799.16;4841300;29;20526;-69
2021/12/12 06:48:33;;;;;;;15.32;6.60;;;;;;;-4.32;91.02;94804.81;4840238;29;20052;-69
2021/12/12 06:51:01;;;;;;;19.90;6.95;;;;;;;-4.35;91.26;94800.03;4840798;29;20048;-69
2021/12/12 06:53:31;;;;;;;15.60;6.47;;;;;;;-4.40;90.98;94804.72;4840740;29;20061;-69
2021/12/12 06:55:59;;;;;;;13.32;5.72;;;;;;;-4.42;90.48;94813.06;4840535;29;20050;-69
2021/12/12 06:58:28;;;;;;;12.65;5.20;;;;;;;-4.44;89.87;94813.34;4838399;29;20069;-69
2021/12/12 07:01:04;;;;;;;12.80;5.40;;;;;;;-4.48;90.04;94820.38;4839765;29;20053;-69
2021/12/12 07:03:32;;;;;;;10.35;5.05;;;;;;;-4.48;89.36;94820.38;4839004;29;20080;-69
2021/12/12 07:06:00;;;;;;;10.33;4.67;;;;;;;-4.52;89.86;94821.28;4839969;29;20048;-69
2021/12/12 07:08:27;;;;;;;13.50;5.22;;;;;;;-4.51;89.38;94826.34;4839481;29;20536;-69
2021/12/12 07:10:54;;;;;;;12.15;4.75;;;;;;;-4.46;89.34;94828.94;4853664;29;20054;-69
2021/12/12 07:13:22;;;;;;;12.32;5.70;;;;;;;-4.45;89.83;94830.53;4839448;29;20061;-69
2021/12/12 07:15:54;;;;;;;15.00;6.60;;;;;;;-4.46;89.20;94823.56;4839648;29;20050;-69
2021/12/12 07:18:27;;;;;;;18.13;7.50;;;;;;;-4.46;89.02;94830.81;4839256;29;20046;-70
2021/12/12 07:20:58;;;;;;;14.88;7.00;;;;;;;-4.42;88.93;94834.50;4839672;29;20050;-69
2021/12/12 07:23:26;;;;;;;16.73;7.55;;;;;;;-4.40;89.15;94834.97;4839396;29;20053;-69
2021/12/12 07:25:53;;;;;;;14.75;6.38;;;;;;;-4.34;88.97;94831.13;4839301;29;20056;-69
2021/12/12 07:28:20;;;;;;;15.15;6.70;;;;;;;-4.33;88.90;94835.38;4839145;29;20056;-69
2021/12/12 07:30:47;;;;;;;13.60;6.07;;;;;;;-4.31;87.93;94832.38;4839518;29;20058;-69
2021/12/12 07:33:14;;;;;;;12.48;5.65;;;;;;;-4.31;88.26;94832.38;4839114;29;20505;-69
2021/12/12 07:35:44;;;;;;;12.93;5.90;;;;;;;-4.35;87.64;94839.44;4838161;29;20045;-69
2021/12/12 07:38:15;;;;;;;12.27;5.55;;;;;;;-4.30;87.82;94842.03;4839231;29;20046;-69
2021/12/12 07:40:45;;;;;;;12.23;5.90;;;;;;;-4.29;87.79;94847.06;4839150;29;20050;-69
2021/12/12 07:43:12;;;;;;;14.60;6.40;;;;;;;-4.28;87.53;94847.88;4839127;29;20411;-68
2021/12/12 07:45:39;;;;;;;20.25;8.40;;;;;;;-4.25;87.84;94853.41;4839421;29;20049;-70
2021/12/12 07:48:09;;;;;;;30.75;12.05;;;;;;;-4.24;87.97;94855.03;4832228;29;20488;-68
2021/12/12 07:50:37;;;;;;;21.70;9.38;;;;;;;-4.29;87.77;94852.44;4842830;29;20056;-69
2021/12/12 07:53:05;;;;;;;16.77;7.75;;;;;;;-4.24;87.85;94860.38;4820981;29;20523;-69
2021/12/12 07:55:32;;;;;;;19.90;8.37;;;;;;;-4.22;87.92;94854.72;4810522;29;20052;-69
2021/12/12 07:58:04;;;;;;;20.73;8.85;;;;;;;-4.17;87.53;94856.50;4768104;29;1135194;-69
2021/12/12 08:00:32;;;;;;;18.50;8.67;;;;;;;-4.17;87.75;94865.34;4802947;29;21553;-69
2021/12/12 08:02:59;;;;;;;21.80;10.00;;;;;;;-4.12;88.24;94865.25;4803545;29;20050;-68
2021/12/12 08:05:29;;;;;;;24.98;12.23;;;;;;;-3.84;87.65;94857.19;4810867;29;20050;-69
2021/12/12 08:07:59;;;;;;;36.08;14.07;;;;;;;-1.45;81.57;94858.53;4839288;29;20054;-69
2021/12/12 08:10:27;;;;;;;17.35;9.55;;;;;;;1.37;72.93;94846.59;4838256;29;20500;-69
2021/12/12 08:12:55;;;;;;;20.57;11.70;;;;;;;3.60;66.37;94837.81;4853585;29;20064;-70
2021/12/12 08:15:22;;;;;;;17.95;9.40;;;;;;;5.50;61.70;94841.28;4839560;29;20049;-71
2021/12/12 08:17:49;;;;;;;21.45;9.85;;;;;;;6.82;56.33;94838.38;4839676;29;20384;-70
2021/12/12 08:20:17;;;;;;;18.30;9.50;;;;;;;6.42;57.85;94840.53;4837691;29;20052;-70
2021/12/12 08:22:46;;;;;;;21.77;9.90;;;;;;;8.07;48.38;94839.84;4839375;29;20080;-70
2021/12/12 08:25:16;;;;;;;11.57;6.67;;;;;;;7.13;49.13;94845.44;4838013;29;20050;-70
2021/12/12 08:27:43;;;;;;;10.45;6.50;;;;;;;7.84;47.03;94844.69;4839402;29;20050;-74
2021/12/12 08:30:12;;;;;;;16.10;10.38;;;;;;;8.90;45.10;94846.72;4839271;29;20056;-70
2021/12/12 08:32:42;;;;;;;25.30;11.90;;;;;;;9.77;42.99;94851.41;4839353;29;20419;-70
2021/12/12 08:35:11;;;;;;;11.45;6.50;;;;;;;8.68;43.30;94854.03;4837720;29;20062;-70
2021/12/12 08:37:40;;;;;;;16.10;9.63;;;;;;;8.00;46.56;94856.94;4839605;29;20052;-70
2021/12/12 08:40:09;;;;;;;46.35;18.05;;;;;;;9.25;42.67;94850.06;4838931;29;20045;-70
2021/12/12 08:42:37;;;;;;;23.77;12.70;;;;;;;9.99;42.04;94857.75;4839397;29;20050;-70
2021/12/12 08:45:09;;;;;;;14.90;8.77;;;;;;;10.82;40.37;94865.28;4839055;29;20644;-70
2021/12/12 08:47:37;;;;;;;23.60;11.90;;;;;;;10.90;39.60;94851.13;4838521;29;21797;-70
2021/12/12 08:50:07;;;;;;;12.60;7.40;;;;;;;10.16;40.54;94858.97;4838914;29;20058;-73
2021/12/12 08:52:39;;;;;;;12.25;8.20;;;;;;;11.65;38.92;94850.16;4838598;29;20844;-71
2021/12/12 08:55:14;;;;;;;18.25;10.93;;;;;;;13.37;35.84;94848.09;4838589;29;20046;-70
2021/12/12 08:57:52;;;;;;;37.42;13.73;;;;;;;10.37;40.50;94854.69;4839182;29;20050;-71
2021/12/12 09:00:31;;;;;;;37.97;13.38;;;;;;;7.46;45.92;94866.50;4804802;29;20042;-71
2021/12/12 09:02:58;;;;;;;10.20;6.10;;;;;;;4.96;52.98;94867.41;4818341;29;20407;-70
2021/12/12 09:05:33;;;;;;;11.95;6.68;;;;;;;4.56;56.25;94868.47;4841020;29;20053;-70
2021/12/12 09:08:31;;;;;;;11.05;6.70;;;;;;;4.31;57.53;94867.91;4842614;29;20056;-71
2021/12/12 09:11:05;;;;;;;11.32;6.68;;;;;;;4.00;58.99;94869.47;4840789;29;20507;-70
2021/12/12 09:13:54;;;;;;;33.67;18.35;;;;;;;4.04;60.36;94864.13;4838321;29;20610;-71
2021/12/12 09:16:29;;;;;;;13.27;7.07;;;;;;;4.12;60.14;94863.16;4838652;29;20052;-70
2021/12/12 09:19:02;;;;;;;11.60;6.47;;;;;;;4.07;59.84;94862.66;4838684;29;20057;-70
2021/12/12 09:21:43;;;;;;;10.88;6.03;;;;;;;3.81;61.46;94866.66;4841853;29;20048;-70
2021/12/12 09:24:18;;;;;;;12.82;5.88;;;;;;;3.20;63.36;94863.13;4842324;29;20054;-70
2021/12/12 09:26:53;;;;;;;12.57;6.72;;;;;;;2.69;66.07;94851.94;4842234;29;20068;-70
2021/12/12 09:29:29;;;;;;;18.17;8.33;;;;;;;2.73;65.67;94858.25;4856482;29;20049;-70
2021/12/12 09:32:08;;;;;;;20.08;9.15;;;;;;;2.63;66.69;94872.28;4842568;29;20056;-70
2021/12/12 09:34:43;;;;;;;17.80;8.10;;;;;;;2.11;68.80;94867.56;4841582;29;20468;-70
2021/12/12 09:37:36;;;;;;;16.50;8.18;;;;;;;2.32;68.21;94868.25;4842238;29;20046;-70
2021/12/12 09:40:24;;;;;;;12.32;6.45;;;;;;;1.79;70.92;94864.59;4842441;29;20052;-70
2021/12/12 09:43:24;;;;;;;10.00;5.30;;;;;;;2.29;70.08;94860.78;4841101;29;20940;-70
2021/12/12 09:46:06;;;;;;;24.48;11.75;;;;;;;4.70;62.36;94851.69;4841439;29;20050;-70
2021/12/12 09:51:43;;;;;;;9.25;5.40;;;;;;;4.70;59.95;94845.47;4805144;29;20810;-70
2021/12/12 09:54:26;;;;;;;10.63;6.30;;;;;;;6.49;56.55;94854.28;4805250;29;20055;-70
2021/12/12 09:56:59;;;;;;;8.83;5.13;;;;;;;8.79;49.25;94846.69;4805159;29;20065;-70
2021/12/12 09:59:52;;;;;;;9.13;5.60;;;;;;;7.49;53.21;94846.66;4806640;29;20059;-70
2021/12/12 10:02:42;;;;;;;9.90;5.88;;;;;;;6.63;53.80;94850.97;4805112;29;20051;-70
2021/12/12 10:05:27;;;;;;;8.40;5.25;;;;;;;5.57;57.86;94848.78;4808517;29;20054;-70
2021/12/12 10:08:23;;;;;;;9.18;5.20;;;;;;;5.24;59.40;94862.94;4841978;29;20050;-70
2021/12/12 10:11:00;;;;;;;7.87;4.70;;;;;;;4.56;61.65;94856.81;4840612;29;21810;-70
2021/12/12 10:13:32;;;;;;;9.05;5.15;;;;;;;4.78;61.93;94855.34;4842512;29;20053;-71
2021/12/12 10:16:06;;;;;;;11.73;5.85;;;;;;;4.80;62.00;94844.91;4841853;29;20053;-70
2021/12/12 10:18:41;;;;;;;8.20;4.47;;;;;;;4.23;63.32;94849.84;4824611;29;20046;-71
2021/12/12 10:21:14;;;;;;;7.82;4.90;;;;;;;4.22;64.32;94844.75;4841444;29;20050;-70
2021/12/12 10:23:56;;;;;;;7.77;4.30;;;;;;;4.14;64.14;94852.72;4841970;29;20042;-70
2021/12/12 10:26:53;;;;;;;7.80;4.47;;;;;;;4.01;65.14;94837.69;4841240;29;20050;-70
2021/12/12 10:29:26;;;;;;;8.93;4.70;;;;;;;3.33;68.04;94847.56;4841145;29;20054;-71
2021/12/12 10:31:58;;;;;;;7.07;4.20;;;;;;;3.87;65.73;94848.19;4841012;29;20042;-70
2021/12/12 10:35:06;;;;;;;7.72;3.85;;;;;;;4.57;63.86;94836.66;4854993;29;20060;-70
2021/12/12 10:37:59;;;;;;;7.60;3.90;;;;;;;4.73;63.40;94833.91;4840818;29;20050;-70
2021/12/12 10:40:35;;;;;;;7.80;4.00;;;;;;;4.33;64.57;94837.66;4840965;29;20064;-70
2021/12/12 10:43:12;;;;;;;7.95;4.38;;;;;;;3.41;67.83;94840.41;4841071;29;20060;-70
2021/12/12 10:45:49;;;;;;;9.32;4.65;;;;;;;3.31;68.97;94832.78;4840436;29;21823;-70
2021/12/12 10:48:19;;;;;;;7.75;4.38;;;;;;;3.12;69.06;94834.22;4840842;29;20056;-70
2021/12/12 10:50:51;;;;;;;7.80;4.10;;;;;;;2.94;70.50;94832.94;4841188;29;20522;-70
2021/12/12 10:53:29;;;;;;;9.48;4.70;;;;;;;4.14;66.17;94822.06;4840741;29;20042;-70
2021/12/12 10:56:19;;;;;;;8.77;4.43;;;;;;;4.96;63.26;94834.75;4839455;29;20140;-71
2021/12/12 10:58:51;;;;;;;7.55;4.18;;;;;;;5.75;61.33;94832.78;4830468;29;20062;-71
2021/12/12 11:01:30;;;;;;;7.80;4.30;;;;;;;5.89;60.02;94838.47;4814265;29;20058;-70
2021/12/12 11:04:15;;;;;;;8.97;4.60;;;;;;;4.90;63.81;94835.41;4806202;29;20054;-70
2021/12/12 11:06:51;;;;;;;7.55;4.38;;;;;;;4.43;64.57;94836.31;4834464;29;20049;-70
2021/12/12 11:09:23;;;;;;;9.70;5.35;;;;;;;3.44;67.97;94837.00;4840503;29;20050;-70
2021/12/12 11:11:59;;;;;;;11.38;5.80;;;;;;;2.96;70.39;94836.88;4840486;29;20065;-71
2021/12/12 11:14:38;;;;;;;8.25;4.57;;;;;;;3.02;70.45;94834.72;4840682;29;20381;-70
2021/12/12 11:17:12;;;;;;;9.10;4.83;;;;;;;3.25;70.54;94839.59;4840616;29;20066;-70
2021/12/12 11:19:47;;;;;;;10.10;5.72;;;;;;;3.12;70.73;94823.38;4839902;29;20164;-70
2021/12/12 11:22:19;;;;;;;12.68;6.20;;;;;;;3.25;70.65;94834.94;4840239;29;20057;-70
2021/12/12 11:24:56;;;;;;;11.05;6.20;;;;;;;3.11;70.87;94839.97;4840611;29;20056;-70
2021/12/12 11:27:42;;;;;;;12.13;6.80;;;;;;;3.03;71.25;94840.91;4839808;29;20046;-70
2021/12/12 11:30:24;;;;;;;9.37;5.43;;;;;;;2.73;72.91;94850.13;4839832;29;20050;-70
2021/12/12 11:32:53;;;;;;;15.30;8.52;;;;;;;3.37;71.54;94842.25;4822763;29;20042;-71
2021/12/12 11:35:23;;;;;;;10.00;5.35;;;;;;;2.84;71.20;94828.78;4807058;29;20071;-70
2021/12/12 11:38:12;;;;;;;10.10;5.53;;;;;;;2.77;72.53;94831.25;4804149;29;20051;-70
2021/12/12 11:41:08;;;;;;;10.65;5.57;;;;;;;3.28;70.90;94833.44;4803182;29;20813;-70
2021/12/12 11:43:41;;;;;;;13.97;6.67;;;;;;;2.62;73.11;94826.53;4784147;29;22012;-70
2021/12/12 11:46:18;;;;;;;12.77;5.75;;;;;;;2.70;72.69;94826.44;4803453;29;20085;-69
2021/12/12 11:48:48;;;;;;;16.98;8.98;;;;;;;2.66;73.45;94822.84;4804105;29;20454;-70
2021/12/12 11:51:21;;;;;;;26.63;12.80;;;;;;;2.51;73.66;94826.25;4833529;29;20049;-70
2021/12/12 11:53:56;;;;;;;115.53;47.33;;;;;;;2.44;74.48;94831.47;4809726;29;20058;-70
2021/12/12 11:56:34;;;;;;;96.27;41.40;;;;;;;2.19;75.79;94820.63;4802851;29;20047;-70
2021/12/12 11:59:18;;;;;;;25.95;13.55;;;;;;;2.30;75.63;94819.06;4803466;29;20066;-70
2021/12/12 12:01:49;;;;;;;16.77;10.60;;;;;;;2.22;75.41;94817.25;4802656;29;20408;-70
2021/12/12 12:04:52;;;;;;;98.43;56.55;;;;;;;2.26;75.08;94811.97;4802758;29;20059;-70
2021/12/12 12:07:59;;;;;;;17.08;9.50;;;;;;;2.39;74.43;94808.09;4839356;29;20046;-70
2021/12/12 12:10:40;;;;;;;55.43;36.13;;;;;;;2.05;76.12;94809.34;4836045;29;20555;-70
2021/12/12 12:13:49;;;;;;;18.70;10.10;;;;;;;2.09;76.03;94805.63;4839428;29;20049;-70
2021/12/12 12:16:31;;;;;;;12.18;6.07;;;;;;;2.05;75.31;94807.44;4764145;30;20060;-70
2021/12/12 12:19:12;;;;;;;15.93;7.50;;;;;;;2.23;75.98;94807.22;4764581;30;20052;-70